createdAt,value
2023-03-05T10:41:27.330Z,13.37
2023-03-05T10:43:57.231Z,13.38
2023-03-05T10:46:27.438Z,13.79
2023-03-05T10:48:56.765Z,13.94
2023-03-05T10:51:27.210Z,14.46
2023-03-05T10:53:56.908Z,14.88
2023-03-05T10:56:27.084Z,15.29
2023-03-05T10:58:55.052Z,15.87
2023-03-05T11:01:24.374Z,15.76
2023-03-05T11:03:54.773Z,15.79
2023-03-05T11:06:31.612Z,15.25
2023-03-05T11:09:16.317Z,14.68
2023-03-05T11:11:45.725Z,14.69
2023-03-05T11:14:29.901Z,14.83
2023-03-05T11:16:58.020Z,14.91
2023-03-05T11:19:29.773Z,14.69
2023-03-05T11:22:07.633Z,14.48
2023-03-05T11:24:35.662Z,14.46
2023-03-05T11:27:23.508Z,14.29
2023-03-05T11:29:51.493Z,14.03
2023-03-05T11:32:22.496Z,14.14
2023-03-05T11:34:50.468Z,14.55
2023-03-05T11:37:24.390Z,16.17
2023-03-05T11:40:15.093Z,15.97
2023-03-05T11:42:44.445Z,16.16
2023-03-05T11:45:16.588Z,16.23
2023-03-05T11:47:45.803Z,16.42
2023-03-05T11:50:19.244Z,16.15
2023-03-05T11:52:48.075Z,16.54
2023-03-05T11:55:17.191Z,17.18
2023-03-05T11:57:50.193Z,16.80
2023-03-05T12:00:20.373Z,16.67
2023-03-05T12:02:49.127Z,17.68
2023-03-05T12:05:17.362Z,17.45
2023-03-05T12:07:48.223Z,18.55
2023-03-05T12:10:16.997Z,17.78
2023-03-05T12:12:48.926Z,17.30
2023-03-05T12:15:42.300Z,16.85
2023-03-05T12:18:20.167Z,17.37
2023-03-05T12:20:50.553Z,18.09
2023-03-05T12:23:20.101Z,18.67
2023-03-05T12:25:49.167Z,19.17
2023-03-05T12:28:18.983Z,19.18
2023-03-05T12:30:58.424Z,18.52
2023-03-05T12:33:36.886Z,17.59
2023-03-05T12:36:36.251Z,16.99
2023-03-05T12:39:09.713Z,16.78
2023-03-05T12:41:38.516Z,16.67
2023-03-05T12:44:28.602Z,16.76
2023-03-05T12:47:23.734Z,16.02
2023-03-05T12:49:51.862Z,16.02
2023-03-05T12:52:27.809Z,16.04
2023-03-05T12:55:03.871Z,16.02
2023-03-05T12:57:31.862Z,16.00
2023-03-05T13:00:05.207Z,15.91
2023-03-05T13:02:35.221Z,15.73
2023-03-05T13:05:05.401Z,15.48
2023-03-05T13:07:33.372Z,15.09
2023-03-05T13:10:01.404Z,15.14
2023-03-05T13:12:30.116Z,15.00
2023-03-05T13:15:03.761Z,14.61
2023-03-05T13:17:44.422Z,14.31
2023-03-05T13:20:34.010Z,14.28
2023-03-05T13:23:06.802Z,14.01
2023-03-05T13:25:34.829Z,14.09
2023-03-05T13:28:05.683Z,13.96
2023-03-05T13:30:35.214Z,13.93
2023-03-05T13:33:06.199Z,13.85
2023-03-05T13:35:34.198Z,13.68
2023-03-05T13:38:02.538Z,13.54
2023-03-05T13:40:31.364Z,13.34
2023-03-05T13:43:10.428Z,13.24
2023-03-05T13:45:40.086Z,13.09
2023-03-05T13:48:08.408Z,13.07
2023-03-05T13:50:37.044Z,12.95
2023-03-05T13:53:18.227Z,12.86
2023-03-05T13:55:46.283Z,12.80
2023-03-05T13:58:48.698Z,12.68
2023-03-05T14:01:23.522Z,12.61
2023-03-05T14:03:52.219Z,12.59
2023-03-05T14:06:20.760Z,12.57
2023-03-05T14:08:51.469Z,12.48
2023-03-05T14:11:19.572Z,12.48
2023-03-05T14:13:47.800Z,12.35
2023-03-05T14:16:16.929Z,12.34
2023-03-05T14:18:55.502Z,12.35
2023-03-05T14:21:23.578Z,12.30
2023-03-05T14:23:53.067Z,12.24
2023-03-05T14:26:29.734Z,12.30
2023-03-05T14:29:00.289Z,12.22
2023-03-05T14:31:28.576Z,12.17
2023-03-05T14:34:01.949Z,12.14
2023-03-05T14:36:30.334Z,12.17
2023-03-05T14:38:58.420Z,12.14
2023-03-05T14:41:40.160Z,12.07
2023-03-05T14:44:13.645Z,11.97
2023-03-05T14:46:41.926Z,11.95
2023-03-05T14:49:11.349Z,11.88
2023-03-05T14:51:40.534Z,11.87
2023-03-05T14:54:08.460Z,11.81
2023-03-05T14:56:36.622Z,11.75
2023-03-05T14:59:04.626Z,11.67
2023-03-05T15:01:32.599Z,11.64
2023-03-05T15:04:01.117Z,11.72
2023-03-05T15:06:33.088Z,11.64
2023-03-05T15:09:01.043Z,11.52
2023-03-05T15:11:29.028Z,11.48
2023-03-05T15:13:57.032Z,11.47
2023-03-05T15:16:25.128Z,11.38
2023-03-05T15:18:53.033Z,11.41
2023-03-05T15:21:20.967Z,11.30
2023-03-05T15:23:50.316Z,11.38
2023-03-05T15:26:18.304Z,11.25
2023-03-05T15:28:46.343Z,11.13
2023-03-05T15:31:14.416Z,10.98
2023-03-05T15:33:42.439Z,10.96
2023-03-05T15:36:11.162Z,10.89
2023-03-05T15:38:41.629Z,10.78
2023-03-05T15:41:11.840Z,10.71
2023-03-05T15:43:39.792Z,10.64
2023-03-05T15:46:08.228Z,10.60
2023-03-05T15:48:36.408Z,10.54
2023-03-05T15:51:07.806Z,10.47
2023-03-05T15:53:35.740Z,10.30
2023-03-05T15:56:03.720Z,10.26
2023-03-05T15:58:33.030Z,10.15
2023-03-05T16:01:01.043Z,10.04
2023-03-05T16:03:29.007Z,9.95
2023-03-05T16:05:56.946Z,9.83
2023-03-05T16:08:24.896Z,9.82
2023-03-05T16:10:52.801Z,9.73
2023-03-05T16:13:21.792Z,9.58
2023-03-05T16:15:53.175Z,9.51
2023-03-05T16:18:21.491Z,9.32
2023-03-05T16:20:49.409Z,9.22
2023-03-05T16:23:17.359Z,9.17
2023-03-05T16:25:45.329Z,9.06
2023-03-05T16:28:13.298Z,8.90
2023-03-05T16:30:41.245Z,8.85
2023-03-05T16:33:10.656Z,8.75
2023-03-05T16:35:38.670Z,8.71
2023-03-05T16:38:07.029Z,8.67
2023-03-05T16:41:05.617Z,8.67
2023-03-05T16:43:25.614Z,8.66
2023-03-05T16:45:53.533Z,8.64
2023-03-05T16:48:22.889Z,8.55
2023-03-05T16:50:50.892Z,8.49
2023-03-05T16:53:18.842Z,8.46
2023-03-05T16:55:46.822Z,8.51
2023-03-05T16:58:14.744Z,8.36
2023-03-05T17:00:42.767Z,8.34
2023-03-05T17:03:10.706Z,8.32
2023-03-05T17:05:40.065Z,8.21
2023-03-05T17:08:08.077Z,8.21
2023-03-05T17:10:36.062Z,8.25
2023-03-05T17:13:04.016Z,8.15
2023-03-05T17:15:33.367Z,8.10
2023-03-05T17:18:01.365Z,8.02
2023-03-05T17:20:29.392Z,7.98
2023-03-05T17:22:58.886Z,7.97
2023-03-05T17:25:26.897Z,7.93
2023-03-05T17:27:54.841Z,7.91
2023-03-05T17:30:22.898Z,7.90
2023-03-05T17:32:53.614Z,7.93
2023-03-05T17:35:23.170Z,7.81
2023-03-05T17:37:51.728Z,7.77
2023-03-05T17:40:21.090Z,7.78
2023-03-05T17:42:49.029Z,7.92
2023-03-05T17:45:16.946Z,7.79
2023-03-05T17:47:45.112Z,7.89
2023-03-05T17:50:13.591Z,7.81
2023-03-05T17:52:41.584Z,7.77
2023-03-05T17:55:10.797Z,7.83
2023-03-05T17:57:41.591Z,7.77
2023-03-05T18:00:13.089Z,7.66
2023-03-05T18:02:41.021Z,7.67
2023-03-05T18:05:09.712Z,7.56
2023-03-05T18:07:37.801Z,7.50
2023-03-05T18:10:06.775Z,7.41
2023-03-05T18:12:34.730Z,7.38
2023-03-05T18:15:04.213Z,7.37
2023-03-05T18:17:32.154Z,7.31
2023-03-05T18:20:02.850Z,7.32
2023-03-05T18:22:33.308Z,7.35
2023-03-05T18:25:01.254Z,7.27
2023-03-05T18:27:31.118Z,7.30
2023-03-05T18:29:59.148Z,7.21
2023-03-05T18:32:29.236Z,7.17
2023-03-05T18:34:57.316Z,7.14
2023-03-05T18:37:25.268Z,7.25
2023-03-05T18:39:53.294Z,7.24
2023-03-05T18:42:21.324Z,7.22
2023-03-05T18:44:49.307Z,7.20
2023-03-05T18:47:17.272Z,7.22
2023-03-05T18:49:46.595Z,7.22
2023-03-05T18:52:14.559Z,7.28
2023-03-05T18:54:42.556Z,7.20
2023-03-05T18:57:10.551Z,7.22
2023-03-05T18:59:38.538Z,7.18
2023-03-05T19:02:06.487Z,7.15
2023-03-05T19:04:34.461Z,7.16
2023-03-05T19:07:03.843Z,7.14
2023-03-05T19:09:58.911Z,7.12
2023-03-05T19:12:31.001Z,7.12
2023-03-05T19:14:59.766Z,7.12
2023-03-05T19:17:27.733Z,7.09
2023-03-05T19:19:56.176Z,7.14
2023-03-05T19:22:26.764Z,7.10
2023-03-05T19:24:54.811Z,7.24
2023-03-05T19:27:22.740Z,7.30
2023-03-05T19:29:50.752Z,7.33
2023-03-05T19:32:18.991Z,7.41
2023-03-05T19:34:46.959Z,7.38
2023-03-05T19:37:15.019Z,7.46
2023-03-05T19:39:44.442Z,7.51
2023-03-05T19:42:12.462Z,7.56
2023-03-05T19:44:40.472Z,7.58
2023-03-05T19:47:08.443Z,7.57
2023-03-05T19:49:36.440Z,7.61
2023-03-05T19:52:06.224Z,7.59
2023-03-05T19:54:34.217Z,7.61
2023-03-05T19:57:03.533Z,7.60
2023-03-05T19:59:31.505Z,7.59
2023-03-05T20:01:59.491Z,7.55
2023-03-05T20:04:28.132Z,7.48
2023-03-05T20:06:56.116Z,7.50
2023-03-05T20:09:24.064Z,7.46
2023-03-05T20:11:52.148Z,7.44
2023-03-05T20:14:21.457Z,7.38
2023-03-05T20:16:49.432Z,7.35
2023-03-05T20:19:18.232Z,7.41
2023-03-05T20:21:46.231Z,7.21
2023-03-05T20:24:15.576Z,7.41
2023-03-05T20:26:43.921Z,7.31
2023-03-05T20:29:12.029Z,7.38
2023-03-05T20:31:41.869Z,7.38
2023-03-05T20:34:11.390Z,7.36
2023-03-05T20:36:39.377Z,7.34
2023-03-05T20:39:07.442Z,7.39
2023-03-05T20:41:35.997Z,7.44
2023-03-05T20:44:04.906Z,7.45
2023-03-05T20:46:33.754Z,7.45
2023-03-05T20:49:04.365Z,7.50
2023-03-05T20:51:33.928Z,7.51
2023-03-05T20:54:04.047Z,7.50
2023-03-05T20:56:33.342Z,7.53
2023-03-05T20:59:03.849Z,7.55
2023-03-05T21:01:32.940Z,7.56
2023-03-05T21:04:02.328Z,7.47
2023-03-05T21:06:30.983Z,7.48
2023-03-05T21:08:59.002Z,7.37
2023-03-05T21:11:27.354Z,7.34
2023-03-05T21:13:55.320Z,7.40
2023-03-05T21:16:24.082Z,7.44
2023-03-05T21:18:52.152Z,7.38
2023-03-05T21:21:21.463Z,7.35
2023-03-05T21:23:49.399Z,7.32
2023-03-05T21:26:17.424Z,7.34
2023-03-05T21:28:45.397Z,7.34
2023-03-05T21:31:15.645Z,7.25
2023-03-05T21:33:43.663Z,7.28
2023-03-05T21:36:11.655Z,7.27
2023-03-05T21:38:40.989Z,7.25
2023-03-05T21:41:08.940Z,7.17
2023-03-05T21:43:36.857Z,7.20
2023-03-05T21:46:05.022Z,7.12
2023-03-05T21:48:33.179Z,7.02
2023-03-05T21:51:01.136Z,6.87
2023-03-05T21:53:29.135Z,6.76
2023-03-05T21:56:25.982Z,6.67
2023-03-05T21:58:54.184Z,6.53
2023-03-05T22:01:22.248Z,6.38
2023-03-05T22:03:50.498Z,6.27
2023-03-05T22:06:19.032Z,6.13
2023-03-05T22:08:47.190Z,6.09
2023-03-05T22:11:15.956Z,6.07
2023-03-05T22:13:45.252Z,6.01
2023-03-05T22:16:14.452Z,5.93
2023-03-05T22:18:42.438Z,5.86
2023-03-05T22:21:18.090Z,5.82
2023-03-05T22:23:46.088Z,5.77
2023-03-05T22:26:14.007Z,5.73
2023-03-05T22:28:42.594Z,5.62
2023-03-05T22:31:12.051Z,5.58
2023-03-05T22:33:40.034Z,5.57
2023-03-05T22:36:11.782Z,5.61
2023-03-05T22:38:39.811Z,5.62
2023-03-05T22:41:08.645Z,5.53
2023-03-05T22:43:36.770Z,5.47
2023-03-05T22:46:11.720Z,5.49
2023-03-05T22:48:39.724Z,5.47
2023-03-05T22:51:07.886Z,5.51
2023-03-05T22:53:35.843Z,5.55
2023-03-05T22:56:07.244Z,5.51
2023-03-05T22:58:35.193Z,5.59
2023-03-05T23:01:03.163Z,5.68
2023-03-05T23:03:32.545Z,5.68
2023-03-05T23:06:00.559Z,5.72
2023-03-05T23:08:28.501Z,5.74
2023-03-05T23:10:56.433Z,5.75
2023-03-05T23:13:24.373Z,5.76
2023-03-05T23:15:52.402Z,5.70
2023-03-05T23:18:20.368Z,5.72
2023-03-05T23:20:49.694Z,5.70
2023-03-05T23:23:17.671Z,5.66
2023-03-05T23:25:45.596Z,5.61
2023-03-05T23:28:13.572Z,5.54
2023-03-05T23:30:43.132Z,5.63
2023-03-05T23:33:14.432Z,5.52
2023-03-05T23:35:43.369Z,5.52
2023-03-05T23:38:14.000Z,5.50
2023-03-05T23:40:43.042Z,5.42
2023-03-05T23:43:11.036Z,5.37
2023-03-05T23:45:39.003Z,5.29
2023-03-05T23:48:07.513Z,5.21
2023-03-05T23:50:36.455Z,5.21
2023-03-05T23:53:04.536Z,5.15
2023-03-05T23:55:35.034Z,5.16
2023-03-05T23:58:02.965Z,5.08
